createdAt,value
2018-02-16T00:02:10.263Z,76.40
2018-02-16T00:04:36.636Z,76.30
2018-02-16T00:07:03.724Z,75.70
2018-02-16T00:09:30.104Z,75.70
2018-02-16T00:11:57.316Z,75.60
2018-02-16T00:14:23.678Z,75.60
2018-02-16T00:16:50.788Z,74.50
2018-02-16T00:19:17.160Z,74.50
2018-02-16T00:21:44.275Z,74.20
2018-02-16T00:24:10.649Z,74.20
2018-02-16T00:26:37.787Z,73.10
2018-02-16T00:29:04.162Z,73.10
2018-02-16T00:31:30.518Z,73.10
2018-02-16T00:33:56.900Z,73.30
2018-02-16T00:36:23.269Z,73.00
2018-02-16T00:38:49.634Z,72.60
2018-02-16T00:41:16.738Z,73.30
2018-02-16T00:43:43.438Z,73.10
2018-02-16T00:46:10.538Z,73.00
2018-02-16T00:48:36.906Z,72.90
2018-02-16T00:51:04.022Z,72.50
2018-02-16T00:53:30.398Z,72.50
2018-02-16T00:55:57.515Z,72.30
2018-02-16T00:58:23.883Z,72.30
2018-02-16T01:00:50.245Z,72.60
2018-02-16T01:03:16.674Z,73.40
2018-02-16T01:05:43.122Z,74.30
2018-02-16T01:08:09.549Z,73.70
2018-02-16T01:10:35.894Z,73.90
2018-02-16T01:13:02.258Z,73.90
2018-02-16T01:15:29.451Z,73.90
2018-02-16T01:17:55.822Z,73.90
2018-02-16T01:20:22.188Z,74.40
2018-02-16T01:22:49.351Z,74.50
2018-02-16T01:25:15.725Z,74.50
2018-02-16T01:27:42.084Z,74.80
2018-02-16T01:30:09.208Z,74.10
2018-02-16T01:32:35.566Z,74.00
2018-02-16T01:35:02.686Z,74.60
2018-02-16T01:37:29.046Z,74.50
2018-02-16T01:39:55.434Z,74.40
2018-02-16T01:42:21.836Z,74.70
2018-02-16T01:44:48.182Z,75.50
2018-02-16T01:47:14.542Z,75.70
2018-02-16T01:50:01.975Z,75.70
2018-02-16T01:52:28.348Z,75.70
2018-02-16T01:54:56.301Z,75.70
2018-02-16T01:57:23.386Z,77.10
2018-02-16T01:59:49.772Z,76.50
2018-02-16T02:02:16.979Z,78.50
2018-02-16T02:04:43.349Z,78.50
2018-02-16T02:07:09.712Z,78.60
2018-02-16T02:09:36.094Z,78.80
2018-02-16T02:12:02.474Z,79.20
2018-02-16T02:14:29.583Z,79.60
2018-02-16T02:16:55.948Z,79.60
2018-02-16T02:19:23.083Z,79.70
2018-02-16T02:21:50.201Z,79.80
2018-02-16T02:24:16.558Z,79.80
2018-02-16T02:26:43.678Z,80.70
2018-02-16T02:29:10.064Z,80.70
2018-02-16T02:31:36.429Z,80.70
2018-02-16T02:34:02.807Z,80.70
2018-02-16T02:36:29.892Z,80.90
2018-02-16T02:38:56.391Z,80.90
2018-02-16T02:41:23.506Z,81.60
2018-02-16T02:43:49.860Z,81.60
2018-02-16T02:46:16.225Z,81.90
2018-02-16T02:48:42.611Z,81.90
2018-02-16T02:51:09.026Z,82.70
2018-02-16T02:53:35.358Z,82.90
2018-02-16T02:56:01.725Z,83.30
2018-02-16T02:58:28.832Z,83.70
2018-02-16T03:00:55.203Z,83.70
2018-02-16T03:03:22.319Z,85.10
2018-02-16T03:05:48.673Z,85.10
2018-02-16T03:08:16.517Z,85.90
2018-02-16T03:10:42.893Z,85.90
2018-02-16T03:13:10.000Z,86.30
2018-02-16T03:15:36.360Z,86.30
2018-02-16T03:18:03.455Z,86.90
2018-02-16T03:20:29.830Z,86.90
2018-02-16T03:22:56.171Z,87.00
2018-02-16T03:25:23.290Z,86.20
2018-02-16T03:27:49.668Z,86.10
2018-02-16T03:30:16.762Z,85.90
2018-02-16T03:32:43.123Z,85.90
2018-02-16T03:35:09.506Z,85.90
2018-02-16T03:37:36.613Z,86.40
2018-02-16T03:40:03.706Z,86.60
2018-02-16T03:42:30.080Z,86.60
2018-02-16T03:44:57.918Z,87.60
2018-02-16T03:47:24.271Z,88.20
2018-02-16T03:49:50.632Z,88.00
2018-02-16T03:52:17.796Z,88.30
2018-02-16T03:54:44.171Z,88.30
2018-02-16T03:57:10.548Z,88.30
2018-02-16T03:59:37.670Z,88.10
2018-02-16T04:02:04.799Z,88.00
2018-02-16T04:04:31.154Z,88.60
2018-02-16T04:06:57.721Z,88.00
2018-02-16T04:09:24.114Z,87.80
2018-02-16T04:11:50.482Z,87.90
2018-02-16T04:14:16.854Z,87.90
2018-02-16T04:16:43.274Z,88.10
2018-02-16T04:19:09.645Z,88.60
2018-02-16T04:21:36.028Z,88.70
2018-02-16T04:24:02.404Z,88.90
2018-02-16T04:26:28.778Z,89.40
2018-02-16T04:28:55.138Z,89.70
2018-02-16T04:31:21.497Z,89.80
2018-02-16T04:33:47.863Z,90.10
2018-02-16T04:36:14.218Z,90.30
2018-02-16T04:38:40.583Z,90.40
2018-02-16T04:41:06.957Z,90.40
2018-02-16T04:43:33.331Z,90.70
2018-02-16T04:45:59.719Z,90.60
2018-02-16T04:48:26.088Z,90.40
2018-02-16T04:50:52.450Z,90.40
2018-02-16T04:53:18.828Z,90.30
2018-02-16T04:55:45.206Z,90.20
2018-02-16T04:58:13.042Z,90.10
2018-02-16T05:00:39.418Z,90.00
2018-02-16T05:03:05.805Z,90.00
2018-02-16T05:05:32.185Z,90.00
2018-02-16T05:07:59.317Z,90.40
2018-02-16T05:10:25.695Z,90.40
2018-02-16T05:12:52.068Z,90.20
2018-02-16T05:15:18.432Z,90.30
2018-02-16T05:17:45.551Z,90.20
2018-02-16T05:20:11.927Z,90.20
2018-02-16T05:22:38.459Z,90.10
2018-02-16T05:25:04.804Z,90.10
2018-02-16T05:27:31.162Z,89.90
2018-02-16T05:29:57.536Z,89.90
2018-02-16T05:32:24.671Z,89.60
2018-02-16T05:34:51.072Z,89.60
2018-02-16T05:37:17.471Z,90.00
2018-02-16T05:39:43.835Z,89.50
2018-02-16T05:42:10.204Z,89.40
2018-02-16T05:44:36.565Z,88.60
2018-02-16T05:47:03.672Z,88.70
2018-02-16T05:49:30.040Z,88.70
2018-02-16T05:51:57.175Z,88.10
2018-02-16T05:54:24.286Z,87.70
2018-02-16T05:56:50.676Z,87.70
2018-02-16T05:59:17.037Z,87.80
2018-02-16T06:01:43.422Z,88.00
2018-02-16T06:04:10.541Z,88.40
2018-02-16T06:06:36.923Z,88.40
2018-02-16T06:09:03.358Z,88.50
2018-02-16T06:11:29.744Z,88.80
2018-02-16T06:13:57.647Z,88.60
2018-02-16T06:16:24.034Z,88.60
2018-02-16T06:18:50.392Z,88.60
2018-02-16T06:21:17.491Z,88.90
2018-02-16T06:23:43.926Z,88.90
2018-02-16T06:26:10.312Z,88.10
2018-02-16T06:28:37.402Z,88.40
2018-02-16T06:31:03.782Z,88.30
2018-02-16T06:33:30.135Z,88.40
2018-02-16T06:35:56.513Z,89.10
2018-02-16T06:38:22.882Z,88.70
2018-02-16T06:40:50.027Z,88.40
2018-02-16T06:43:16.394Z,88.40
2018-02-16T06:45:42.813Z,88.70
2018-02-16T06:48:09.228Z,89.00
2018-02-16T06:50:36.345Z,89.00
2018-02-16T06:53:02.757Z,89.00
2018-02-16T06:55:29.172Z,88.80
2018-02-16T06:57:55.592Z,88.30
2018-02-16T07:00:21.973Z,88.00
2018-02-16T07:02:48.376Z,88.10
2018-02-16T07:05:14.756Z,88.20
2018-02-16T07:07:41.882Z,88.80
2018-02-16T07:10:08.284Z,88.80
2018-02-16T07:12:34.706Z,87.90
2018-02-16T07:15:01.098Z,88.60
2018-02-16T07:17:28.225Z,88.00
2018-02-16T07:19:54.628Z,88.10
2018-02-16T07:22:21.023Z,87.70
2018-02-16T07:24:47.438Z,88.60
2018-02-16T07:27:14.574Z,89.70
2018-02-16T07:29:40.957Z,89.70
2018-02-16T07:32:07.373Z,89.80
2018-02-16T07:34:34.498Z,88.80
2018-02-16T07:37:00.884Z,88.80
2018-02-16T07:39:27.277Z,88.80
2018-02-16T07:44:28.107Z,88.90
2018-02-16T07:46:54.486Z,88.80
2018-02-16T07:49:21.632Z,88.60
2018-02-16T07:51:48.751Z,88.00
2018-02-16T07:54:15.150Z,88.00
2018-02-16T07:56:41.513Z,89.10
2018-02-16T07:59:07.896Z,88.00
2018-02-16T08:01:34.238Z,87.80
2018-02-16T08:04:00.598Z,88.20
2018-02-16T08:06:26.974Z,87.90
2018-02-16T08:08:53.331Z,87.00
2018-02-16T08:11:19.710Z,86.70
2018-02-16T08:13:46.064Z,86.70
2018-02-16T08:16:13.171Z,87.00
2018-02-16T08:18:39.524Z,87.10
2018-02-16T08:21:05.912Z,86.60
2018-02-16T08:23:32.278Z,87.30
2018-02-16T08:25:58.649Z,87.30
2018-02-16T08:28:25.076Z,87.30
2018-02-16T08:30:51.530Z,87.20
2018-02-16T08:33:17.918Z,87.60
2018-02-16T08:35:45.019Z,87.60
2018-02-16T08:38:11.374Z,87.60
2018-02-16T08:40:37.747Z,87.80
2018-02-16T08:43:04.106Z,88.00
2018-02-16T08:45:30.471Z,87.80
2018-02-16T08:47:58.324Z,88.00
2018-02-16T08:50:24.675Z,88.00
2018-02-16T08:52:52.534Z,87.00
2018-02-16T08:55:18.905Z,87.00
2018-02-16T08:57:46.041Z,87.20
2018-02-16T09:00:12.409Z,87.10
2018-02-16T09:02:38.792Z,87.40
2018-02-16T09:05:05.164Z,86.90
2018-02-16T09:07:31.547Z,87.30
2018-02-16T09:09:59.407Z,87.40
2018-02-16T09:12:25.799Z,87.40
2018-02-16T09:14:52.167Z,87.00
2018-02-16T09:17:20.025Z,87.60
2018-02-16T09:19:46.411Z,87.60
2018-02-16T09:22:12.813Z,87.20
2018-02-16T09:24:39.182Z,87.40
2018-02-16T09:27:05.559Z,88.30
2018-02-16T09:29:31.929Z,88.00
2018-02-16T09:31:59.060Z,88.70
2018-02-16T09:34:26.220Z,89.30
2018-02-16T09:36:54.795Z,89.50
2018-02-16T09:39:23.284Z,89.90
2018-02-16T09:41:50.378Z,90.00
2018-02-16T09:44:16.751Z,90.00
2018-02-16T09:46:43.127Z,89.60
2018-02-16T09:49:09.485Z,89.80
2018-02-16T09:51:35.843Z,89.70
2018-02-16T09:54:02.211Z,89.90
2018-02-16T09:56:28.622Z,89.70
2018-02-16T09:58:55.729Z,89.70
2018-02-16T10:01:22.126Z,89.70
2018-02-16T10:03:48.504Z,90.00
2018-02-16T10:06:14.890Z,89.60
2018-02-16T10:08:41.471Z,89.40
2018-02-16T10:11:07.846Z,89.70
2018-02-16T10:13:34.962Z,89.00
2018-02-16T10:16:01.330Z,89.00
2018-02-16T10:18:27.709Z,89.00
2018-02-16T10:20:54.082Z,89.60
2018-02-16T10:23:21.178Z,88.60
2018-02-16T10:25:47.550Z,88.60
2018-02-16T10:28:15.407Z,86.90
2018-02-16T10:30:41.780Z,86.80
2018-02-16T10:33:08.224Z,86.90
2018-02-16T10:35:34.638Z,87.40
2018-02-16T10:38:01.010Z,87.50
2018-02-16T10:40:27.368Z,87.40
2018-02-16T10:42:53.776Z,87.30
2018-02-16T10:45:20.251Z,87.80
2018-02-16T10:47:47.334Z,88.70
2018-02-16T10:50:13.708Z,88.90
2018-02-16T10:52:40.089Z,88.80
2018-02-16T10:55:06.444Z,88.80
2018-02-16T10:57:32.813Z,89.10
2018-02-16T10:59:59.926Z,89.40
2018-02-16T11:02:32.314Z,88.90
2018-02-16T11:05:04.658Z,88.50
2018-02-16T11:07:37.246Z,88.30
2018-02-16T11:10:03.623Z,88.20
2018-02-16T11:12:30.725Z,89.30
2018-02-16T11:14:57.083Z,89.30
2018-02-16T11:17:24.201Z,88.50
2018-02-16T11:19:50.569Z,88.50
2018-02-16T11:22:16.928Z,88.20
2018-02-16T11:24:44.092Z,87.70
2018-02-16T11:27:11.206Z,86.60
2018-02-16T11:29:37.565Z,86.60
2018-02-16T11:32:04.675Z,86.90
2018-02-16T11:34:32.530Z,85.00
2018-02-16T11:36:59.647Z,83.90
2018-02-16T11:39:26.059Z,83.90
2018-02-16T11:41:52.412Z,83.40
2018-02-16T11:44:18.808Z,84.70
2018-02-16T11:46:46.106Z,85.70
2018-02-16T11:49:12.497Z,85.70
2018-02-16T11:51:39.703Z,83.90
2018-02-16T11:54:06.068Z,83.80
2018-02-16T11:56:33.179Z,83.90
2018-02-16T11:58:59.530Z,83.90
2018-02-16T12:01:25.920Z,84.10
2018-02-16T12:03:52.295Z,83.40
2018-02-16T12:06:18.738Z,81.90
2018-02-16T12:08:45.885Z,82.10
2018-02-16T12:11:12.269Z,82.10
2018-02-16T12:13:38.640Z,81.20
2018-02-16T12:16:05.036Z,81.30
2018-02-16T12:18:31.393Z,81.30
2018-02-16T12:20:57.779Z,81.90
2018-02-16T12:23:24.187Z,81.10
2018-02-16T12:25:50.565Z,81.50
2018-02-16T12:28:16.918Z,81.00
2018-02-16T12:30:43.278Z,80.90
2018-02-16T12:33:09.667Z,82.10
2018-02-16T12:35:36.091Z,81.40
2018-02-16T12:38:02.492Z,80.50
2018-02-16T12:40:29.606Z,81.20
2018-02-16T12:42:56.711Z,81.50
2018-02-16T12:45:23.077Z,81.60
2018-02-16T12:47:50.975Z,80.30
2018-02-16T12:50:18.114Z,80.00
2018-02-16T12:52:44.474Z,79.90
2018-02-16T12:55:11.574Z,79.00
2018-02-16T12:57:37.938Z,79.00
2018-02-16T13:00:05.042Z,81.70
2018-02-16T13:02:31.411Z,81.70
2018-02-16T13:04:57.782Z,82.80
2018-02-16T13:07:24.166Z,83.20
2018-02-16T13:09:50.549Z,83.90
2018-02-16T13:12:17.002Z,84.30
2018-02-16T13:14:44.911Z,84.50
2018-02-16T13:17:12.047Z,83.90
2018-02-16T13:19:39.162Z,83.90
2018-02-16T13:22:05.577Z,83.80
2018-02-16T13:24:31.964Z,84.50
2018-02-16T13:26:59.062Z,83.50
2018-02-16T13:29:25.438Z,83.40
2018-02-16T13:31:51.806Z,82.60
2018-02-16T13:34:19.709Z,82.20
2018-02-16T13:36:46.090Z,82.20
2018-02-16T13:39:13.231Z,82.90
2018-02-16T13:41:40.328Z,83.60
2018-02-16T13:44:06.685Z,83.60
2018-02-16T13:46:33.047Z,84.20
2018-02-16T13:49:00.170Z,85.40
2018-02-16T13:51:26.545Z,85.30
2018-02-16T13:53:54.183Z,85.10
2018-02-16T13:56:21.424Z,85.50
2018-02-16T13:58:49.378Z,85.80
2018-02-16T14:01:15.764Z,85.70
2018-02-16T14:03:42.137Z,85.00
2018-02-16T14:06:08.497Z,84.60
2018-02-16T14:08:36.349Z,82.60
2018-02-16T14:11:04.239Z,82.10
2018-02-16T14:13:31.391Z,81.70
2018-02-16T14:15:57.863Z,81.70
2018-02-16T14:18:24.258Z,81.30
2018-02-16T14:20:51.385Z,81.30
2018-02-16T14:23:17.748Z,81.30
2018-02-16T14:25:44.869Z,81.20
2018-02-16T14:28:11.232Z,81.20
2018-02-16T14:30:37.596Z,81.30
2018-02-16T14:33:03.996Z,81.80
2018-02-16T14:35:30.365Z,82.20
2018-02-16T14:37:56.759Z,82.40
2018-02-16T14:40:23.859Z,82.90
2018-02-16T14:42:50.251Z,82.90
2018-02-16T14:45:16.644Z,82.50
2018-02-16T14:47:43.062Z,82.50
2018-02-16T14:50:09.459Z,83.60
2018-02-16T14:52:35.923Z,82.00
2018-02-16T14:55:02.362Z,82.50
2018-02-16T14:57:28.732Z,82.30
2018-02-16T14:59:55.114Z,81.90
2018-02-16T15:02:21.507Z,82.30
2018-02-16T15:04:47.885Z,81.90
2018-02-16T15:07:15.746Z,82.30
2018-02-16T15:09:42.154Z,82.30
2018-02-16T15:12:08.518Z,82.30
2018-02-16T15:14:34.903Z,82.00
2018-02-16T15:17:01.310Z,82.00
2018-02-16T15:19:28.479Z,81.70
2018-02-16T15:21:54.909Z,81.60
2018-02-16T15:24:21.323Z,81.70
2018-02-16T15:26:48.454Z,82.60
2018-02-16T15:29:14.814Z,82.60
2018-02-16T15:31:41.210Z,82.30
2018-02-16T15:34:07.582Z,82.20
2018-02-16T15:36:33.973Z,82.60
2018-02-16T15:39:00.351Z,82.90
2018-02-16T15:41:26.717Z,83.40
2018-02-16T15:43:53.073Z,83.50
2018-02-16T15:46:19.448Z,83.70
2018-02-16T15:48:45.824Z,84.00
2018-02-16T15:51:12.203Z,84.20
2018-02-16T15:53:39.303Z,83.80
2018-02-16T15:56:05.664Z,83.80
2018-02-16T15:58:32.801Z,84.30
2018-02-16T16:01:00.017Z,84.50
2018-02-16T16:03:27.363Z,84.60
2018-02-16T16:08:47.739Z,83.80
2018-02-16T16:11:14.207Z,84.40
2018-02-16T16:13:40.569Z,85.00
2018-02-16T16:16:06.941Z,86.30
2018-02-16T16:18:33.316Z,85.30
2018-02-16T16:20:59.844Z,85.50
2018-02-16T16:23:26.215Z,86.50
2018-02-16T16:25:53.334Z,86.80
2018-02-16T16:28:19.712Z,86.80
2018-02-16T16:30:47.139Z,88.00
2018-02-16T16:33:13.521Z,88.00
2018-02-16T16:35:40.524Z,88.50
2018-02-16T16:38:08.355Z,87.30
2018-02-16T16:40:34.767Z,87.30
2018-02-16T16:43:01.122Z,87.50
2018-02-16T16:45:27.487Z,88.20
2018-02-16T16:47:53.860Z,87.10
2018-02-16T16:50:20.242Z,87.30
2018-02-16T16:52:47.400Z,87.70
2018-02-16T16:55:13.769Z,87.80
2018-02-16T16:57:40.159Z,87.20
2018-02-16T17:00:06.526Z,86.80
2018-02-16T17:02:32.867Z,86.80
2018-02-16T17:04:59.316Z,87.20
2018-02-16T17:07:25.717Z,88.20
2018-02-16T17:09:52.098Z,87.90
2018-02-16T17:12:19.408Z,87.70
2018-02-16T17:14:45.809Z,88.20
2018-02-16T17:17:12.187Z,87.90
2018-02-16T17:22:10.654Z,86.80
2018-02-16T17:24:37.767Z,87.20
2018-02-16T17:27:04.352Z,87.20
2018-02-16T17:29:30.722Z,87.20
2018-02-16T17:31:57.144Z,87.70
2018-02-16T17:34:23.552Z,87.30
2018-02-16T17:36:49.938Z,86.70
2018-02-16T17:39:16.308Z,87.60
2018-02-16T17:41:43.418Z,87.90
2018-02-16T17:44:09.793Z,87.80
2018-02-16T17:46:36.886Z,88.00
2018-02-16T17:49:03.264Z,87.90
2018-02-16T17:51:30.355Z,86.70
2018-02-16T17:53:56.719Z,86.70
2018-02-16T17:56:23.095Z,87.10
2018-02-16T17:58:49.459Z,88.10
2018-02-16T18:01:15.823Z,88.20
2018-02-16T18:03:42.918Z,88.00
2018-02-16T18:06:09.300Z,87.90
2018-02-16T18:08:36.425Z,87.60
2018-02-16T18:11:02.842Z,87.60
2018-02-16T18:13:29.198Z,87.30
2018-02-16T18:15:55.555Z,87.00
2018-02-16T18:18:22.678Z,87.30
2018-02-16T18:20:49.076Z,87.30
2018-02-16T18:23:15.452Z,87.80
2018-02-16T18:25:41.817Z,87.20
2018-02-16T18:28:08.171Z,87.30
2018-02-16T18:30:34.587Z,87.70
2018-02-16T18:33:01.008Z,87.50
2018-02-16T18:35:27.408Z,87.00
2018-02-16T18:37:54.693Z,86.70
2018-02-16T18:40:21.868Z,86.70
2018-02-16T18:42:48.218Z,87.20
2018-02-16T18:45:14.594Z,87.10
2018-02-16T18:47:40.996Z,87.10
2018-02-16T18:50:07.378Z,87.60
2018-02-16T18:52:33.741Z,88.40
2018-02-16T18:55:00.106Z,88.80
2018-02-16T18:57:27.213Z,87.60
2018-02-16T18:59:53.614Z,87.50
2018-02-16T19:02:19.984Z,87.40
2018-02-16T19:04:46.417Z,87.30
2018-02-16T19:07:13.684Z,87.10
2018-02-16T19:09:40.070Z,87.00
2018-02-16T19:12:06.526Z,87.50
2018-02-16T19:14:34.227Z,87.40
2018-02-16T19:17:00.598Z,87.70
2018-02-16T19:19:26.972Z,87.40
2018-02-16T19:21:53.343Z,87.70
2018-02-16T19:24:20.463Z,88.50
2018-02-16T19:26:46.827Z,88.50
2018-02-16T19:29:13.987Z,88.60
2018-02-16T19:31:40.367Z,88.60
2018-02-16T19:34:06.748Z,88.90
2018-02-16T19:36:33.144Z,89.10
2018-02-16T19:38:59.571Z,88.40
2018-02-16T19:41:25.959Z,87.90
2018-02-16T19:43:52.382Z,89.00
2018-02-16T19:46:18.848Z,88.50
2018-02-16T19:48:45.243Z,87.90
2018-02-16T19:51:11.661Z,86.80
2018-02-16T19:53:38.774Z,87.20
2018-02-16T19:56:05.159Z,87.10
2018-02-16T19:58:32.276Z,87.30
2018-02-16T20:00:58.647Z,87.20
2018-02-16T20:03:25.010Z,87.60
2018-02-16T20:05:51.395Z,88.00
2018-02-16T20:08:17.831Z,88.20
2018-02-16T20:10:44.222Z,88.70
2018-02-16T20:13:10.621Z,88.80
2018-02-16T20:15:36.987Z,89.20
2018-02-16T20:18:03.382Z,89.00
2018-02-16T20:20:29.738Z,89.40
2018-02-16T20:22:56.120Z,89.50
2018-02-16T20:25:22.515Z,89.40
2018-02-16T20:27:49.093Z,89.40
2018-02-16T20:30:15.466Z,89.50
2018-02-16T20:32:41.831Z,89.60
2018-02-16T20:35:08.938Z,89.30
2018-02-16T20:37:35.324Z,89.30
2018-02-16T20:40:02.695Z,89.40
2018-02-16T20:42:29.094Z,89.40
2018-02-16T20:44:56.195Z,89.80
2018-02-16T20:47:22.563Z,89.80
2018-02-16T20:49:48.917Z,90.10
2018-02-16T20:52:28.565Z,90.00
2018-02-16T20:54:54.931Z,90.00
2018-02-16T20:57:21.299Z,89.90
2018-02-16T20:59:47.728Z,89.60
2018-02-16T21:02:14.082Z,89.70
2018-02-16T21:04:41.198Z,89.00
2018-02-16T21:07:07.605Z,89.00
2018-02-16T21:09:34.015Z,90.30
2018-02-16T21:12:00.377Z,90.40
2018-02-16T21:14:26.764Z,90.60
2018-02-16T21:16:53.168Z,90.60
2018-02-16T21:19:20.266Z,90.20
2018-02-16T21:21:46.634Z,90.20
2018-02-16T21:24:12.992Z,90.10
2018-02-16T21:26:40.113Z,90.20
2018-02-16T21:29:06.477Z,90.20
2018-02-16T21:31:33.587Z,90.10
2018-02-16T21:33:59.944Z,90.10
2018-02-16T21:36:26.385Z,90.00
2018-02-16T21:38:53.514Z,89.90
2018-02-16T21:41:19.870Z,89.90
2018-02-16T21:43:47.168Z,89.30
2018-02-16T21:46:13.554Z,89.30
2018-02-16T21:48:40.669Z,90.00
2018-02-16T21:51:07.046Z,89.80
2018-02-16T21:53:34.168Z,89.80
2018-02-16T21:56:01.284Z,90.10
2018-02-16T21:58:27.654Z,89.70
2018-02-16T22:00:54.023Z,89.60
2018-02-16T22:03:20.453Z,89.50
2018-02-16T22:05:46.828Z,89.70
2018-02-16T22:08:13.214Z,89.70
2018-02-16T22:10:39.602Z,89.80
2018-02-16T22:13:07.451Z,89.70
2018-02-16T22:15:33.818Z,89.60
2018-02-16T22:18:00.922Z,90.10
2018-02-16T22:20:27.295Z,90.10
2018-02-16T22:22:53.697Z,90.20
2018-02-16T22:25:20.070Z,90.20
2018-02-16T22:27:47.172Z,90.30
2018-02-16T22:30:13.532Z,90.30
2018-02-16T22:32:39.996Z,90.10
2018-02-16T22:35:06.422Z,90.10
2018-02-16T22:37:33.527Z,90.50
2018-02-16T22:39:59.911Z,90.50
2018-02-16T22:42:26.262Z,90.50
2018-02-16T22:44:52.619Z,90.40
2018-02-16T22:47:18.970Z,90.30
2018-02-16T22:49:45.327Z,90.20
2018-02-16T22:52:12.487Z,90.30
2018-02-16T22:54:38.909Z,90.30
2018-02-16T22:57:06.065Z,90.30
2018-02-16T22:59:32.435Z,90.30
2018-02-16T23:01:58.800Z,90.30
2018-02-16T23:04:25.166Z,90.10
2018-02-16T23:06:51.622Z,90.10
2018-02-16T23:09:17.994Z,90.20
2018-02-16T23:11:45.095Z,90.30
2018-02-16T23:14:11.469Z,90.30
2018-02-16T23:16:39.316Z,90.20
2018-02-16T23:19:05.667Z,90.20
2018-02-16T23:21:32.066Z,90.40
2018-02-16T23:23:58.425Z,90.50
2018-02-16T23:26:24.769Z,90.40
2018-02-16T23:28:51.124Z,90.30
2018-02-16T23:31:17.554Z,90.80
2018-02-16T23:33:43.921Z,90.80
2018-02-16T23:36:10.286Z,91.10
2018-02-16T23:38:37.384Z,90.70
2018-02-16T23:41:03.754Z,90.70
2018-02-16T23:43:30.088Z,90.80
2018-02-16T23:45:56.452Z,90.70
2018-02-16T23:48:22.818Z,90.60
2018-02-16T23:50:49.961Z,90.90
2018-02-16T23:53:16.331Z,90.90
2018-02-16T23:55:42.763Z,91.00
2018-02-16T23:58:09.164Z,91.00
